Time;durP1;ratioP1;P1;durP2;ratioP2;P2;SDS_P1;SDS_P2;PMS_P1;PMS_P2;Temp;Humidity;BMP_temperature;BMP_pressure;BME280_temperature;BME280_humidity;BME280_pressure;Samples;Min_cycle;Max_cycle;Signal;HPM_P1;HPM_P2
2021/12/16 00:07:01;;;;;;;9.73;1.73;;;20.20;61.70;;;;;;4495092;31;20133;-84
2021/12/16 00:08:38;;;;;;;4.78;1.05;;;20.20;61.70;;;;;;4478908;31;20637;-84
2021/12/16 00:19:46;;;;;;;6.45;1.30;;;20.20;61.80;;;;;;4496290;31;20189;-85
2021/12/16 00:33:13;;;;;;;3.75;1.10;;;20.10;62.70;;;;;;4495395;31;20132;-86
2021/12/16 00:35:42;;;;;;;4.38;1.27;;;20.10;61.80;;;;;;4494382;31;20159;-85
2021/12/16 00:38:09;;;;;;;3.15;1.23;;;20.10;61.90;;;;;;4494448;31;20137;-85
2021/12/16 00:40:40;;;;;;;3.58;1.27;;;20.10;61.90;;;;;;4494708;31;20147;-85
2021/12/16 00:56:34;;;;;;;4.47;1.13;;;20.00;61.90;;;;;;4494843;31;20158;-83
2021/12/16 00:59:03;;;;;;;4.55;1.00;;;20.00;61.90;;;;;;4494272;31;20536;-85
2021/12/16 01:42:33;;;;;;;6.25;1.10;;;19.80;62.00;;;;;;4493564;31;20120;-84
2021/12/16 01:50:50;;;;;;;3.78;0.90;;;19.80;62.00;;;;;;4475137;31;20117;-84
2021/12/16 01:56:08;;;;;;;2.20;0.90;;;19.80;62.00;;;;;;4494010;31;20196;-84
2021/12/16 01:58:34;;;;;;;1.65;0.68;;;19.80;62.00;;;;;;4493839;31;20125;-85
2021/12/16 02:01:17;;;;;;;2.80;1.10;;;19.80;62.00;;;;;;4494667;32;20124;-84
2021/12/16 02:03:52;;;;;;;2.13;0.80;;;19.70;62.00;;;;;;4493652;32;20138;-85
2021/12/16 02:09:32;;;;;;;1.58;0.60;;;19.70;62.00;;;;;;4493802;32;20330;-85
2021/12/16 02:12:44;;;;;;;2.22;0.80;;;19.80;62.10;;;;;;4493209;32;20278;-84
2021/12/16 02:36:30;;;;;;;2.65;0.80;;;19.70;62.10;;;;;;4496284;31;20148;-84
2021/12/16 02:39:21;;;;;;;2.38;1.10;;;19.70;62.20;;;;;;4498001;31;20148;-84
2021/12/16 02:41:52;;;;;;;2.90;0.80;;;19.60;62.00;;;;;;4494798;31;20144;-84
2021/12/16 02:44:30;;;;;;;2.40;0.90;;;19.60;62.10;;;;;;4496727;31;20153;-84
2021/12/16 02:49:47;;;;;;;2.50;0.77;;;19.60;62.10;;;;;;4497032;31;20133;-84
2021/12/16 02:52:15;;;;;;;2.85;0.93;;;19.60;62.10;;;;;;4495883;31;20175;-84
2021/12/16 02:54:41;;;;;;;1.45;0.70;;;19.60;62.10;;;;;;4496351;31;20290;-85
2021/12/16 02:57:07;;;;;;;3.15;0.90;;;19.60;62.10;;;;;;4497667;31;20144;-84
2021/12/16 02:59:33;;;;;;;2.65;0.90;;;19.60;62.20;;;;;;4495275;31;20215;-84
2021/12/16 03:02:08;;;;;;;1.92;0.90;;;19.60;62.20;;;;;;4497548;31;20129;-84
2021/12/16 03:04:35;;;;;;;3.70;1.00;;;19.60;62.20;;;;;;4497151;31;20189;-85
2021/12/16 03:07:03;;;;;;;2.78;0.80;;;19.50;62.20;;;;;;4496869;31;20131;-84
2021/12/16 03:10:47;;;;;;;1.95;0.95;;;19.60;62.20;;;;;;4496877;31;20289;-84
2021/12/16 03:15:27;;;;;;;1.98;0.80;;;19.60;62.30;;;;;;4497185;31;20144;-85
2021/12/16 03:18:04;;;;;;;2.08;0.70;;;19.50;62.30;;;;;;4496140;31;20159;-84
2021/12/16 03:31:05;;;;;;;1.85;0.70;;;19.50;62.30;;;;;;4496172;31;20135;-85
2021/12/16 03:34:08;;;;;;;3.38;0.90;;;19.50;62.30;;;;;;4500303;31;20212;-85
2021/12/16 03:36:51;;;;;;;1.90;0.80;;;19.50;62.40;;;;;;4498678;31;20150;-85
2021/12/16 03:39:17;;;;;;;2.20;0.90;;;19.40;62.30;;;;;;4498026;31;20475;-85
2021/12/16 03:41:43;;;;;;;2.60;0.82;;;19.40;62.30;;;;;;4495412;31;20139;-84
2021/12/16 03:44:14;;;;;;;2.30;0.88;;;19.40;62.40;;;;;;4495303;31;20141;-84
2021/12/16 03:46:47;;;;;;;2.03;0.70;;;19.40;62.40;;;;;;4493752;31;20152;-84
2021/12/16 03:49:21;;;;;;;2.03;0.68;;;19.40;62.40;;;;;;4496163;31;20565;-84
2021/12/16 03:51:55;;;;;;;2.22;0.75;;;19.40;62.40;;;;;;4495037;31;20299;-84
2021/12/16 03:54:25;;;;;;;;;;;19.40;62.40;;;;;;4496754;31;20125;-85
2021/12/16 03:56:52;;;;;;;1.95;0.90;;;19.40;62.40;;;;;;4496290;31;20147;-85
2021/12/16 03:59:24;;;;;;;2.70;0.93;;;19.40;62.50;;;;;;4495142;31;20117;-84
2021/12/16 04:01:51;;;;;;;1.73;0.70;;;19.40;62.50;;;;;;4494845;31;20150;-84
2021/12/16 04:04:16;;;;;;;1.63;0.70;;;19.40;62.50;;;;;;4494394;31;20152;-85
2021/12/16 04:06:43;;;;;;;1.95;0.77;;;19.40;62.50;;;;;;4494903;31;20468;-85
2021/12/16 04:09:13;;;;;;;2.28;0.85;;;19.40;62.50;;;;;;4495766;31;20252;-85
2021/12/16 04:11:50;;;;;;;2.83;0.85;;;19.30;62.40;;;;;;4495154;31;20125;-84
2021/12/16 04:14:21;;;;;;;1.75;0.47;;;19.30;62.40;;;;;;4496758;31;20238;-84
2021/12/16 04:16:51;;;;;;;3.03;0.80;;;19.30;62.50;;;;;;4494844;31;20578;-85
2021/12/16 04:19:23;;;;;;;2.22;0.70;;;19.30;62.50;;;;;;4496037;31;20152;-84
2021/12/16 04:21:56;;;;;;;1.73;0.70;;;19.30;62.40;;;;;;4493897;31;20263;-85
2021/12/16 04:24:22;;;;;;;1.67;0.60;;;19.30;62.40;;;;;;4495624;31;20148;-84
2021/12/16 04:26:51;;;;;;;2.30;0.80;;;19.30;62.40;;;;;;4495615;31;20198;-85
2021/12/16 04:29:18;;;;;;;1.50;0.65;;;19.30;62.50;;;;;;4494944;31;20154;-85
2021/12/16 04:31:46;;;;;;;2.08;0.85;;;19.30;62.50;;;;;;4494458;31;20116;-85
2021/12/16 04:34:13;;;;;;;2.17;0.70;;;19.30;62.50;;;;;;4493839;31;20136;-85
2021/12/16 04:36:39;;;;;;;2.05;0.70;;;19.30;62.50;;;;;;4496135;31;20725;-86
2021/12/16 04:39:10;;;;;;;1.17;0.60;;;19.30;62.50;;;;;;4493888;31;20124;-85
2021/12/16 04:41:37;;;;;;;1.10;0.70;;;19.30;62.50;;;;;;4495017;31;20270;-86
2021/12/16 04:44:09;;;;;;;1.42;0.60;;;19.30;62.50;;;;;;4495089;31;20214;-85
2021/12/16 04:46:36;;;;;;;2.75;0.88;;;19.30;62.50;;;;;;4494348;31;20186;-85
2021/12/16 04:49:04;;;;;;;1.90;0.80;;;19.30;62.60;;;;;;4494727;31;20259;-84
2021/12/16 04:51:34;;;;;;;1.25;0.63;;;19.30;62.50;;;;;;4493619;31;20129;-85
2021/12/16 04:54:00;;;;;;;2.50;0.70;;;19.20;62.50;;;;;;4495035;31;20142;-85
2021/12/16 04:56:27;;;;;;;1.27;0.60;;;19.20;62.50;;;;;;4493962;31;20121;-84
2021/12/16 04:58:55;;;;;;;2.88;0.70;;;19.20;62.60;;;;;;4492707;31;20167;-85
2021/12/16 05:01:21;;;;;;;1.60;0.65;;;19.30;62.50;;;;;;4493666;31;20124;-85
2021/12/16 05:03:48;;;;;;;1.27;0.68;;;19.20;62.50;;;;;;4494050;31;20172;-85
2021/12/16 05:06:14;;;;;;;1.30;0.50;;;19.20;62.50;;;;;;4495562;31;20144;-84
2021/12/16 05:08:41;;;;;;;1.48;0.50;;;19.20;62.60;;;;;;4493157;31;20141;-84
2021/12/16 05:11:12;;;;;;;3.45;0.88;;;19.20;62.50;;;;;;4494940;31;20133;-85
2021/12/16 05:13:43;;;;;;;1.80;0.60;;;19.20;62.60;;;;;;4493657;31;20152;-85
2021/12/16 05:16:09;;;;;;;1.70;0.98;;;19.20;62.60;;;;;;4492168;31;20499;-85
2021/12/16 05:18:37;;;;;;;0.68;0.50;;;19.20;62.60;;;;;;4495267;31;20205;-85
2021/12/16 05:21:14;;;;;;;2.42;0.80;;;19.20;62.60;;;;;;4493799;31;20147;-85
2021/12/16 05:26:25;;;;;;;1.38;0.60;;;19.20;62.60;;;;;;4494603;31;20120;-84
2021/12/16 05:28:56;;;;;;;1.23;0.50;;;19.20;62.60;;;;;;4492769;31;20132;-85
2021/12/16 05:31:24;;;;;;;1.42;0.70;;;19.10;62.60;;;;;;4494566;31;20151;-85
2021/12/16 05:33:52;;;;;;;1.95;0.75;;;19.10;62.60;;;;;;4493644;31;20132;-84
2021/12/16 05:36:19;;;;;;;1.15;0.57;;;19.10;62.60;;;;;;4495375;31;20124;-84
2021/12/16 05:38:46;;;;;;;1.58;0.50;;;19.10;62.60;;;;;;4493825;31;20290;-84
2021/12/16 05:41:16;;;;;;;2.22;0.73;;;19.10;62.60;;;;;;4493202;31;20160;-85
2021/12/16 05:43:43;;;;;;;2.15;0.70;;;19.10;62.60;;;;;;4493770;31;20139;-85
2021/12/16 05:46:12;;;;;;;1.27;0.60;;;19.10;62.60;;;;;;4492538;31;20526;-85
2021/12/16 05:48:42;;;;;;;1.75;0.80;;;19.10;62.60;;;;;;4495068;31;20121;-85
2021/12/16 05:51:11;;;;;;;2.30;0.60;;;19.10;62.60;;;;;;4492389;31;20136;-85
2021/12/16 05:53:38;;;;;;;1.40;0.68;;;19.10;62.60;;;;;;4495101;31;20271;-85
2021/12/16 05:56:05;;;;;;;1.73;0.90;;;19.10;62.60;;;;;;4492796;32;20576;-85
2021/12/16 05:58:32;;;;;;;1.58;0.55;;;19.00;62.60;;;;;;4494615;32;20128;-85
2021/12/16 06:01:17;;;;;;;2.50;0.77;;;19.00;62.60;;;;;;4494159;32;20148;-85
2021/12/16 06:03:44;;;;;;;1.67;0.70;;;19.00;62.60;;;;;;4492816;32;20300;-85
2021/12/16 06:06:11;;;;;;;3.08;0.80;;;19.00;62.60;;;;;;4494002;32;20132;-85
2021/12/16 06:08:38;;;;;;;0.80;0.50;;;19.00;62.70;;;;;;4493573;32;20191;-85
2021/12/16 06:13:43;;;;;;;1.77;0.55;;;19.00;62.70;;;;;;4496669;31;20262;-85
2021/12/16 06:27:13;;;;;;;1.20;0.45;;;18.90;62.70;;;;;;4497284;31;20584;-85
2021/12/16 06:29:46;;;;;;;2.75;0.50;;;19.00;62.70;;;;;;4496610;31;20133;-85
2021/12/16 06:32:13;;;;;;;1.63;0.80;;;19.00;62.70;;;;;;4497720;31;20144;-85
2021/12/16 06:34:40;;;;;;;1.27;0.40;;;18.90;62.70;;;;;;4495802;31;20142;-85
2021/12/16 06:37:10;;;;;;;1.33;0.60;;;19.00;62.80;;;;;;4496910;31;20255;-85
2021/12/16 06:39:36;;;;;;;0.68;0.35;;;18.90;62.70;;;;;;4497413;31;20139;-85
2021/12/16 06:42:05;;;;;;;1.38;0.60;;;18.90;62.70;;;;;;4495143;31;20205;-85
2021/12/16 06:44:40;;;;;;;1.20;0.60;;;18.90;62.70;;;;;;4498080;31;20128;-85
2021/12/16 06:47:18;;;;;;;0.82;0.40;;;18.90;62.70;;;;;;4496267;31;20140;-85
2021/12/16 06:49:48;;;;;;;1.10;0.50;;;18.90;62.80;;;;;;4497365;31;20140;-84
2021/12/16 06:52:17;;;;;;;1.88;0.50;;;18.90;62.80;;;;;;4496904;31;20147;-84
2021/12/16 06:55:01;;;;;;;1.77;0.52;;;18.90;62.70;;;;;;4496391;31;20132;-86
2021/12/16 07:00:14;;;;;;;1.05;0.60;;;18.90;62.90;;;;;;4495908;31;20135;-85
2021/12/16 07:05:25;;;;;;;2.85;1.02;;;18.80;62.80;;;;;;4497164;31;20160;-80
2021/12/16 07:07:51;;;;;;;2.45;1.00;;;18.90;62.70;;;;;;4496269;31;20164;-80
2021/12/16 07:10:19;;;;;;;5.15;1.48;;;18.80;62.30;;;;;;4497155;31;20267;-79
2021/12/16 07:12:49;;;;;;;7.00;1.77;;;18.80;61.60;;;;;;4495896;31;20133;-72
2021/12/16 07:15:21;;;;;;;3.40;1.30;;;18.80;60.90;;;;;;4497116;31;20554;-84
2021/12/16 07:17:48;;;;;;;6.85;1.60;;;18.80;60.80;;;;;;4496533;31;20117;-83
2021/12/16 07:20:28;;;;;;;2.35;0.93;;;18.80;61.10;;;;;;4496016;31;20125;-84
2021/12/16 07:22:56;;;;;;;2.92;1.10;;;18.70;61.10;;;;;;4495495;31;20198;-79
2021/12/16 07:25:22;;;;;;;5.25;1.30;;;18.70;61.30;;;;;;4495673;31;20160;-81
2021/12/16 07:27:48;;;;;;;3.10;1.10;;;18.70;61.30;;;;;;4497169;31;20809;-82
2021/12/16 07:30:16;;;;;;;3.97;1.20;;;18.70;61.40;;;;;;4495746;31;20120;-81
2021/12/16 07:32:42;;;;;;;4.28;1.00;;;18.70;61.50;;;;;;4497088;31;20147;-82
2021/12/16 07:35:13;;;;;;;5.53;0.93;;;18.70;61.50;;;;;;4497328;31;20129;-80
2021/12/16 07:37:39;;;;;;;3.42;1.10;;;18.80;61.50;;;;;;4495926;31;20143;-80
2021/12/16 07:40:08;;;;;;;2.47;0.90;;;18.80;61.50;;;;;;4496961;31;20135;-83
2021/12/16 07:42:45;;;;;;;3.72;1.05;;;18.80;61.40;;;;;;4495585;31;20291;-86
2021/12/16 07:45:21;;;;;;;3.75;1.10;;;18.90;61.40;;;;;;4495369;31;20298;-74
2021/12/16 07:47:47;;;;;;;2.70;0.75;;;19.00;61.30;;;;;;4495984;31;20135;-78
2021/12/16 07:50:26;;;;;;;4.32;1.00;;;19.00;61.00;;;;;;4495419;31;20144;-81
2021/12/16 07:52:53;;;;;;;1.52;0.80;;;19.20;60.90;;;;;;4497092;31;20674;-74
2021/12/16 07:55:19;;;;;;;2.28;0.88;;;19.20;60.60;;;;;;4497397;31;20125;-80
2021/12/16 07:57:45;;;;;;;2.67;0.80;;;19.30;60.50;;;;;;4497460;31;20124;-87
2021/12/16 08:00:18;;;;;;;3.13;1.20;;;19.40;60.20;;;;;;4495194;31;20128;-85
2021/12/16 08:02:44;;;;;;;2.72;0.95;;;19.60;60.20;;;;;;4496308;31;20549;-85
2021/12/16 08:05:11;;;;;;;3.58;1.10;;;19.60;59.70;;;;;;4495482;31;20136;-84
2021/12/16 08:07:38;;;;;;;2.85;1.45;;;19.70;59.30;;;;;;4494347;31;20129;-85
2021/12/16 08:10:07;;;;;;;3.45;0.90;;;19.80;59.00;;;;;;4496753;31;20262;-84
2021/12/16 08:12:33;;;;;;;4.93;0.80;;;20.00;58.90;;;;;;4494853;31;20117;-84
2021/12/16 08:14:59;;;;;;;4.07;1.02;;;20.10;58.50;;;;;;4495648;31;20237;-85
2021/12/16 08:17:25;;;;;;;2.22;0.80;;;20.20;58.20;;;;;;4495148;31;20175;-85
2021/12/16 08:19:51;;;;;;;1.58;0.70;;;20.30;57.90;;;;;;4494947;31;20267;-85
2021/12/16 08:22:17;;;;;;;1.20;0.60;;;20.40;57.70;;;;;;4496558;31;20113;-85
2021/12/16 08:24:44;;;;;;;3.08;0.93;;;20.60;57.40;;;;;;4495018;31;20219;-85
2021/12/16 08:27:11;;;;;;;1.75;0.60;;;20.70;57.20;;;;;;4496517;31;20267;-84
2021/12/16 08:29:37;;;;;;;1.65;0.70;;;20.80;56.90;;;;;;4495972;31;20128;-85
2021/12/16 08:32:05;;;;;;;1.67;0.73;;;21.00;56.70;;;;;;4497588;31;20140;-81
2021/12/16 08:34:33;;;;;;;2.00;0.80;;;21.10;56.40;;;;;;4496069;31;20147;-81
2021/12/16 08:36:59;;;;;;;2.45;0.70;;;21.20;56.20;;;;;;4482577;31;20128;-80
2021/12/16 08:39:26;;;;;;;2.25;0.70;;;21.30;56.10;;;;;;4496082;31;20136;-82
2021/12/16 08:41:55;;;;;;;2.20;0.73;;;21.30;56.00;;;;;;4495009;31;20144;-81
2021/12/16 08:44:22;;;;;;;3.05;0.60;;;21.40;55.90;;;;;;4495947;31;20186;-85
2021/12/16 08:47:00;;;;;;;1.98;0.60;;;21.50;55.90;;;;;;4494554;31;20148;-84
2021/12/16 08:49:33;;;;;;;3.53;0.57;;;21.60;55.90;;;;;;4495627;31;20116;-83
2021/12/16 08:52:04;;;;;;;1.45;0.60;;;21.60;55.70;;;;;;4494991;31;20121;-82
2021/12/16 08:54:31;;;;;;;1.38;0.60;;;21.70;55.70;;;;;;4494999;31;20120;-81
2021/12/16 08:56:57;;;;;;;2.53;1.00;;;21.70;55.50;;;;;;4495740;31;20143;-84
2021/12/16 08:59:25;;;;;;;2.38;0.98;;;21.80;55.10;;;;;;4494218;31;20302;-84
2021/12/16 09:01:53;;;;;;;1.50;0.52;;;21.80;54.60;;;;;;4494631;31;20159;-84
2021/12/16 09:04:22;;;;;;;4.75;0.80;;;21.80;54.60;;;;;;4494409;31;20133;-84
2021/12/16 09:06:50;;;;;;;1.67;0.77;;;21.80;55.60;;;;;;4495233;31;20139;-84
2021/12/16 09:09:16;;;;;;;2.75;0.82;;;21.90;54.80;;;;;;4494734;31;20251;-84
2021/12/16 09:12:00;;;;;;;0.70;0.50;;;21.90;54.80;;;;;;4494522;31;20124;-82
2021/12/16 09:14:27;;;;;;;5.05;0.90;;;21.90;54.80;;;;;;4494605;31;20124;-84
2021/12/16 09:16:53;;;;;;;4.10;1.00;;;21.90;54.70;;;;;;4492879;31;20189;-85
2021/12/16 09:19:19;;;;;;;0.77;0.50;;;21.90;54.70;;;;;;4494158;31;20136;-85
2021/12/16 09:21:45;;;;;;;2.25;0.70;;;22.00;54.70;;;;;;4494430;31;20127;-82
2021/12/16 09:24:14;;;;;;;2.53;0.65;;;22.00;54.60;;;;;;4494970;31;20210;-82
2021/12/16 09:26:44;;;;;;;1.25;0.73;;;22.10;54.60;;;;;;4493994;31;20125;-84
2021/12/16 09:29:10;;;;;;;2.45;0.93;;;22.10;54.50;;;;;;4494185;31;20140;-83
2021/12/16 09:31:37;;;;;;;2.00;1.20;;;22.10;54.20;;;;;;4501621;31;20271;-86
2021/12/16 09:34:07;;;;;;;2.25;1.10;;;22.00;53.90;;;;;;4492811;31;20139;-84
2021/12/16 09:36:36;;;;;;;2.50;1.10;;;22.00;53.80;;;;;;4494023;31;20143;-86
2021/12/16 09:39:08;;;;;;;4.60;1.30;;;21.90;53.90;;;;;;4493644;31;20148;-82
2021/12/16 09:41:34;;;;;;;3.88;1.38;;;21.80;53.70;;;;;;4493742;31;20691;-86
2021/12/16 09:44:01;;;;;;;1.38;1.08;;;21.60;53.80;;;;;;4494487;31;20189;-84
2021/12/16 09:46:29;;;;;;;4.70;1.15;;;21.50;53.90;;;;;;4491468;31;20162;-80
2021/12/16 09:48:57;;;;;;;4.13;1.20;;;21.40;53.90;;;;;;4494935;31;20135;-86
2021/12/16 09:51:28;;;;;;;2.00;1.15;;;21.40;54.20;;;;;;4493206;31;20136;-75
2021/12/16 09:54:00;;;;;;;5.00;0.87;;;21.30;54.40;;;;;;4494318;31;20164;-75
2021/12/16 09:56:28;;;;;;;3.10;1.00;;;21.30;54.70;;;;;;4492837;31;20152;-74
2021/12/16 09:58:55;;;;;;;3.33;0.80;;;21.20;54.90;;;;;;4479453;31;20163;-73
2021/12/16 10:01:23;;;;;;;1.58;0.68;;;21.10;55.10;;;;;;4475841;31;23879;-74
2021/12/16 10:03:53;;;;;;;2.15;0.70;;;21.10;55.30;;;;;;4478789;31;20132;-78
2021/12/16 10:06:19;;;;;;;1.48;0.70;;;21.10;55.60;;;;;;4494006;31;20626;-72
2021/12/16 10:08:46;;;;;;;3.55;0.90;;;21.10;55.70;;;;;;4491124;32;20128;-73
2021/12/16 10:11:13;;;;;;;2.28;0.80;;;21.00;55.80;;;;;;4478679;32;20129;-73
2021/12/16 10:14:02;;;;;;;2.40;0.73;;;21.00;55.90;;;;;;4493294;32;20133;-75
2021/12/16 10:19:17;;;;;;;1.75;0.65;;;21.00;56.30;;;;;;4510772;31;20139;-73
2021/12/16 10:21:45;;;;;;;5.88;0.82;;;20.90;56.40;;;;;;4495554;31;20136;-73
2021/12/16 10:24:25;;;;;;;3.50;0.68;;;20.90;56.50;;;;;;4508707;31;20543;-72
2021/12/16 10:27:19;;;;;;;2.58;0.65;;;21.00;56.70;;;;;;4510666;31;20132;-72
2021/12/16 10:30:05;;;;;;;2.35;0.70;;;20.90;56.70;;;;;;4509011;31;20140;-72
2021/12/16 10:32:53;;;;;;;2.45;1.02;;;20.90;56.80;;;;;;4509077;31;20125;-74
2021/12/16 10:35:29;;;;;;;1.17;0.70;;;20.90;56.90;;;;;;4509451;31;20144;-71
2021/12/16 10:38:00;;;;;;;1.38;0.70;;;20.90;57.00;;;;;;4508314;31;20128;-71
2021/12/16 10:40:32;;;;;;;1.75;0.82;;;20.90;57.20;;;;;;4510219;31;20136;-71
2021/12/16 10:43:02;;;;;;;3.22;0.70;;;20.90;57.30;;;;;;4506878;31;20133;-73
2021/12/16 10:45:33;;;;;;;1.92;0.82;;;20.90;57.50;;;;;;4498427;31;20275;-73
2021/12/16 10:48:28;;;;;;;1.90;0.82;;;20.90;57.50;;;;;;4494320;31;20134;-73
2021/12/16 10:50:57;;;;;;;2.67;0.70;;;20.90;57.50;;;;;;4490095;31;20354;-73
2021/12/16 10:53:47;;;;;;;3.83;0.80;;;20.90;57.50;;;;;;4494509;31;20266;-75
2021/12/16 10:56:15;;;;;;;6.10;0.80;;;20.90;57.50;;;;;;4493047;31;20152;-73
2021/12/16 10:58:59;;;;;;;2.40;0.95;;;20.90;57.50;;;;;;4495742;31;20517;-73
2021/12/16 11:02:08;;;;;;;1.50;0.77;;;20.90;57.50;;;;;;4497256;31;20128;-70
2021/12/16 11:04:42;;;;;;;2.58;0.77;;;20.90;57.60;;;;;;4499440;31;20315;-71
2021/12/16 11:07:27;;;;;;;4.75;0.70;;;20.90;57.70;;;;;;4502459;31;20897;-69
2021/12/16 11:09:53;;;;;;;1.67;0.50;;;20.90;57.80;;;;;;4495236;31;20450;-72
2021/12/16 11:12:24;;;;;;;2.38;0.80;;;20.90;57.80;;;;;;4495412;31;20147;-72
2021/12/16 11:14:55;;;;;;;2.58;1.00;;;20.90;57.80;;;;;;4500833;31;20144;-69
2021/12/16 11:17:24;;;;;;;2.65;0.80;;;20.90;57.80;;;;;;4501756;31;20132;-71
2021/12/16 11:19:51;;;;;;;1.05;0.55;;;20.90;57.90;;;;;;4506951;31;20152;-72
2021/12/16 11:22:21;;;;;;;1.98;0.70;;;21.00;58.00;;;;;;4511235;31;20136;-71
2021/12/16 11:24:47;;;;;;;2.40;0.73;;;21.00;58.00;;;;;;4496122;31;20150;-72
2021/12/16 11:27:19;;;;;;;5.53;0.60;;;21.00;58.00;;;;;;4513147;31;20197;-70
2021/12/16 11:29:45;;;;;;;1.75;0.63;;;21.00;58.00;;;;;;4510381;31;20144;-71
2021/12/16 11:32:39;;;;;;;2.25;0.90;;;21.00;58.10;;;;;;4511662;31;20666;-70
2021/12/16 11:35:27;;;;;;;2.95;0.90;;;21.00;58.10;;;;;;4511486;31;20112;-72
2021/12/16 11:37:54;;;;;;;5.45;0.90;;;21.00;58.10;;;;;;4510275;31;20148;-69
2021/12/16 11:40:20;;;;;;;3.75;0.70;;;21.00;58.10;;;;;;4511830;31;20120;-70
2021/12/16 11:43:28;;;;;;;2.13;0.70;;;21.00;58.20;;;;;;4511461;31;20179;-74
2021/12/16 11:45:54;;;;;;;2.78;0.60;;;21.00;58.30;;;;;;4487988;31;20129;-71
2021/12/16 11:48:35;;;;;;;0.88;0.50;;;21.00;58.30;;;;;;4498446;31;20148;-71
2021/12/16 11:51:17;;;;;;;1.95;0.85;;;21.00;58.40;;;;;;4510265;31;20151;-71
2021/12/16 11:53:53;;;;;;;3.42;0.73;;;21.00;58.40;;;;;;4511176;31;20128;-69
2021/12/16 11:56:40;;;;;;;3.00;0.80;;;21.00;58.40;;;;;;4510920;31;20254;-70
2021/12/16 11:59:07;;;;;;;3.17;0.77;;;20.90;58.40;;;;;;4510362;31;20155;-77
2021/12/16 12:01:37;;;;;;;1.38;0.73;;;21.00;58.40;;;;;;4496208;31;20399;-75
2021/12/16 12:04:09;;;;;;;4.35;0.75;;;21.00;58.40;;;;;;4494827;31;20366;-76
2021/12/16 12:06:37;;;;;;;1.45;0.57;;;21.10;58.40;;;;;;4495859;31;20140;-76
2021/12/16 12:09:08;;;;;;;6.30;0.88;;;21.10;58.30;;;;;;4494781;31;21174;-77
2021/12/16 12:11:42;;;;;;;7.72;0.85;;;21.20;58.20;;;;;;4496340;31;20144;-77
2021/12/16 12:14:17;;;;;;;1.83;0.80;;;21.20;58.10;;;;;;4496093;31;20608;-74
2021/12/16 12:16:46;;;;;;;2.17;0.70;;;21.20;58.10;;;;;;4494293;31;20308;-75
2021/12/16 12:19:19;;;;;;;3.05;0.70;;;21.30;58.10;;;;;;4509615;31;20151;-76
2021/12/16 12:21:54;;;;;;;4.95;0.70;;;21.30;57.90;;;;;;4508956;31;20574;-79
2021/12/16 12:24:32;;;;;;;1.33;0.68;;;21.40;57.80;;;;;;4510529;31;20132;-76
2021/12/16 12:27:03;;;;;;;2.33;0.80;;;21.50;57.70;;;;;;4507762;31;20124;-78
2021/12/16 12:29:33;;;;;;;1.23;0.70;;;21.50;57.50;;;;;;4507857;31;20296;-77
2021/12/16 12:32:04;;;;;;;1.83;0.95;;;21.50;57.40;;;;;;4503300;31;20129;-76
2021/12/16 12:34:32;;;;;;;1.50;0.73;;;21.60;57.30;;;;;;4493974;31;20136;-81
2021/12/16 12:37:01;;;;;;;2.05;0.90;;;21.60;57.20;;;;;;4495794;31;20128;-82
2021/12/16 12:39:36;;;;;;;2.63;0.93;;;21.70;57.20;;;;;;4494162;31;20171;-79
2021/12/16 12:42:02;;;;;;;1.60;0.93;;;21.70;57.00;;;;;;4494122;31;20144;-81
2021/12/16 12:44:29;;;;;;;2.20;0.90;;;21.70;56.90;;;;;;4495580;31;20170;-82
2021/12/16 12:46:59;;;;;;;2.45;1.00;;;21.70;56.80;;;;;;4493808;31;20489;-79
2021/12/16 12:49:28;;;;;;;1.33;0.80;;;21.80;56.90;;;;;;4494118;31;20157;-79
2021/12/16 12:52:13;;;;;;;1.40;0.70;;;21.80;56.80;;;;;;4494119;31;20561;-80
2021/12/16 12:54:43;;;;;;;1.50;0.63;;;21.80;56.70;;;;;;4494923;31;20113;-82
2021/12/16 12:57:33;;;;;;;4.10;0.63;;;21.80;56.60;;;;;;4506068;31;20147;-74
2021/12/16 13:00:00;;;;;;;2.55;0.80;;;21.80;57.60;;;;;;4494220;31;20124;-73
2021/12/16 13:02:34;;;;;;;0.68;0.60;;;21.80;56.70;;;;;;4493944;31;20617;-74
2021/12/16 13:05:06;;;;;;;3.45;1.08;;;21.80;56.70;;;;;;4494633;31;20120;-80
2021/12/16 13:07:43;;;;;;;1.88;0.70;;;21.80;56.70;;;;;;4494414;31;20113;-80
2021/12/16 13:10:23;;;;;;;1.02;0.60;;;21.80;56.80;;;;;;4495572;31;20147;-82
2021/12/16 13:13:00;;;;;;;1.65;0.90;;;21.90;56.90;;;;;;4494117;31;20189;-76
2021/12/16 13:26:36;;;;;;;7.30;2.72;;;21.70;55.60;;;;;;4495137;31;20151;-76
2021/12/16 13:32:39;;;;;;;3.15;2.55;;;21.60;54.90;;;;;;4480229;31;20331;-77
2021/12/16 13:37:46;;;;;;;2.20;1.90;;;21.60;55.10;;;;;;4501250;31;20136;-78
2021/12/16 13:40:20;;;;;;;2.45;1.73;;;21.60;55.10;;;;;;4493378;31;20266;-75
2021/12/16 13:43:14;;;;;;;2.00;1.60;;;21.60;55.10;;;;;;4492588;31;20128;-77
2021/12/16 13:58:03;;;;;;;4.57;1.60;;;21.80;55.30;;;;;;4508782;31;20134;-80
2021/12/16 14:02:57;;;;;;;7.35;1.20;;;21.90;55.40;;;;;;4493884;31;20245;-71
2021/12/16 14:05:39;;;;;;;6.47;1.10;;;21.80;55.50;;;;;;4494925;31;20117;-74
2021/12/16 14:08:09;;;;;;;2.70;1.38;;;21.90;55.60;;;;;;4493583;31;20142;-77
2021/12/16 14:10:57;;;;;;;4.00;0.95;;;21.80;55.70;;;;;;4493618;31;20277;-71
2021/12/16 14:41:13;;;;;;;4.35;0.90;;;21.90;56.10;;;;;;4507993;31;20120;-83
2021/12/16 14:43:54;;;;;;;4.25;0.98;;;21.90;56.20;;;;;;4497378;31;20132;-80
2021/12/16 14:46:31;;;;;;;4.10;1.00;;;21.90;56.20;;;;;;4494576;31;20609;-81
2021/12/16 14:48:57;;;;;;;4.18;1.08;;;21.90;56.20;;;;;;4497499;31;20144;-82
2021/12/16 14:51:24;;;;;;;4.40;1.25;;;21.90;56.30;;;;;;4494980;31;20147;-83
2021/12/16 14:53:52;;;;;;;3.45;0.90;;;21.90;56.30;;;;;;4497001;31;20307;-76
2021/12/16 14:56:32;;;;;;;3.30;0.95;;;21.90;56.40;;;;;;4496391;31;20160;-77
2021/12/16 14:59:06;;;;;;;1.50;0.93;;;21.90;56.40;;;;;;4494871;31;20178;-76
2021/12/16 15:01:39;;;;;;;2.30;1.00;;;21.90;56.40;;;;;;4495262;31;20358;-79
2021/12/16 15:04:07;;;;;;;2.00;0.88;;;21.90;56.40;;;;;;4495050;31;20179;-82
2021/12/16 15:06:43;;;;;;;1.95;0.82;;;21.90;56.40;;;;;;4496174;31;20183;-80
2021/12/16 15:09:33;;;;;;;1.80;1.00;;;21.90;56.40;;;;;;4495848;31;20159;-74
2021/12/16 15:12:20;;;;;;;1.90;0.90;;;21.90;56.40;;;;;;4494404;31;20222;-82
2021/12/16 15:42:51;;;;;;;4.80;1.17;;;21.70;57.00;;;;;;4499575;31;20167;-79
2021/12/16 15:45:35;;;;;;;1.42;1.20;;;21.60;57.20;;;;;;4495336;31;20170;-75
2021/12/16 15:48:11;;;;;;;7.07;1.50;;;21.60;57.20;;;;;;4496169;31;20146;-80
2021/12/16 15:50:55;;;;;;;1.83;1.23;;;21.50;57.40;;;;;;4508651;31;20574;-80
2021/12/16 15:53:23;;;;;;;;;;;21.50;57.60;;;;;;4512446;31;20116;-76
2021/12/16 15:56:05;;;;;;;2.80;1.40;;;21.50;57.70;;;;;;4509302;31;20086;-78
2021/12/16 15:58:34;;;;;;;2.72;1.15;;;21.40;57.80;;;;;;4494456;31;20224;-83
2021/12/16 16:01:12;;;;;;;3.20;1.35;;;21.40;58.00;;;;;;4493689;31;20140;-82
2021/12/16 16:03:39;;;;;;;1.67;1.02;;;21.40;58.10;;;;;;4492514;31;20162;-81
2021/12/16 16:06:08;;;;;;;2.35;1.10;;;21.40;58.20;;;;;;4503167;31;20722;-77
2021/12/16 16:08:39;;;;;;;4.85;1.02;;;21.40;58.30;;;;;;4508939;31;20143;-77
2021/12/16 16:11:14;;;;;;;3.30;1.05;;;21.40;58.30;;;;;;4509748;31;20129;-75
2021/12/16 16:13:47;;;;;;;2.60;1.05;;;21.40;58.40;;;;;;4510275;31;20212;-78
2021/12/16 16:16:16;;;;;;;2.95;1.10;;;21.40;58.40;;;;;;4508878;31;20238;-77
2021/12/16 16:18:53;;;;;;;3.28;1.00;;;21.40;58.40;;;;;;4496996;31;20165;-75
2021/12/16 16:21:29;;;;;;;7.40;1.25;;;21.40;58.40;;;;;;4493100;31;20207;-82
2021/12/16 16:24:18;;;;;;;2.42;1.00;;;21.40;58.60;;;;;;4509924;31;20144;-83
2021/12/16 16:26:46;;;;;;;2.75;0.90;;;21.40;58.50;;;;;;4496211;31;20143;-78
2021/12/16 16:29:18;;;;;;;3.15;0.90;;;21.40;58.60;;;;;;4493604;31;20233;-77
2021/12/16 16:31:47;;;;;;;2.17;1.00;;;21.40;58.60;;;;;;4495210;31;20144;-84
2021/12/16 16:34:25;;;;;;;3.92;0.90;;;21.40;58.70;;;;;;4488253;31;20155;-83
2021/12/16 16:36:55;;;;;;;2.08;0.80;;;21.40;58.70;;;;;;4505958;31;20152;-82
2021/12/16 16:39:27;;;;;;;2.38;0.88;;;21.40;58.70;;;;;;4495527;31;20150;-85
2021/12/16 16:42:03;;;;;;;1.65;0.80;;;21.40;58.70;;;;;;4495096;31;20130;-84
2021/12/16 16:44:30;;;;;;;2.10;0.93;;;21.40;58.70;;;;;;4496040;31;20157;-76
2021/12/16 16:47:05;;;;;;;2.53;1.00;;;21.40;58.70;;;;;;4494848;31;20175;-73
2021/12/16 16:49:41;;;;;;;2.03;0.90;;;21.40;58.70;;;;;;4495398;31;20140;-73
2021/12/16 16:52:11;;;;;;;1.67;0.77;;;21.40;58.70;;;;;;4495622;31;20159;-83
2021/12/16 16:54:49;;;;;;;1.02;0.70;;;21.40;58.70;;;;;;4480223;31;20128;-76
2021/12/16 16:57:26;;;;;;;2.05;0.90;;;21.40;58.80;;;;;;4495294;31;20139;-78
2021/12/16 16:59:55;;;;;;;1.73;1.00;;;21.30;58.80;;;;;;4494153;31;20136;-77
2021/12/16 17:02:39;;;;;;;7.65;1.17;;;21.40;59.00;;;;;;4494393;31;20292;-74
2021/12/16 17:05:16;;;;;;;3.22;1.00;;;21.40;58.90;;;;;;4494865;31;20125;-77
2021/12/16 17:07:56;;;;;;;2.95;0.98;;;21.40;58.90;;;;;;4496311;31;20124;-76
2021/12/16 17:10:39;;;;;;;2.80;1.30;;;21.40;58.90;;;;;;4494050;31;20282;-76
2021/12/16 17:13:14;;;;;;;3.07;0.80;;;21.40;59.00;;;;;;4494356;31;20144;-78